Arlington, IL

12:14 AM CDT on July 08, 2015 (GMT -0500)
APRSWXNET | | Change Station
CLOSE
Current Station
Personal Weather Station
Location: Arlington, IL
Elevation: 738 ft
Nearby Weather Stations
Active Advisory: Flood Warning

Elev 738 ft 41.48 °N, 89.22 °W | Updated 7 days ago

Mostly Cloudy
Mostly Cloudy
55 °F
Feels Like 55 °F
N
5
Wind Variable Wind from NNE
Gusts mph

Today
High -- | Low -- °F
--% Chance of Precip.
Yesterday
High -- | Low -- °F
Precip. -- in
5:30 AM 8:32 PM
Waning Gibbous, 57% visible
Pressure 30.12 in
Visibility 10.0 miles
Clouds Clear
Dew Point 49 °F
Humidity 78%
Rainfall in
Snow Depth Not available.
UV 0 out of 12
Pollen .60 out of 12
Air Quality Not available.
Flu Activity Not available.
METAR KVYS 080455Z AUTO 08004KT 10SM CLR 14/12 A3012 RMK AO2 T01410115

More Conditions Fewer Conditions

Pressure 30.12 in
Visibility 10.0 miles
Clouds Clear
Dew Point 49 °F
Humidity 78%
Rainfall in
Snow Depth Not available.
UV 0 out of 12
Pollen .60 out of 12
Air Quality Not available.
Flu Activity Not available.
METAR KVYS 080455Z AUTO 08004KT 10SM CLR 14/12 A3012 RMK AO2 T01410115

More Conditions Fewer Conditions

10-Day Weather Forecast

×

Almanac

Astronomy

Jul. 08, 2015 Rise Set
Actual Time
Civil Twilight
Nautical Twilight
Astronomical Twilight
Moon
Length of Visible Light
Length of Day
Tomorrow will be .
, % of the Moon is Illuminated

Today's Extremes

State Highs State Lows

Community

WunderPhotos

Upload Photos

1,836,057 photos uploaded!

WunderBlogs® & News

Nearby

Air Quality

  Air Quality AQ Index Pollutant
Not available.

Snow Depth

Station Depth Elevation

Earthquake Activity

City Distance Mag. Time & Date
Minimum magnitude displayed is 2.5.

Coastal Water Temperatures

Place Temperature

Stations

Nearby Weather Stations

Station Location Temp. Windchill Dew Point Humidity Wind Precip. Elev Updated Type
                   
Flood Warning
Statement as of 8:24 PM CDT on July 07, 2015

The Flood Warning continues for
the Illinois River at La Salle.
* Until Monday evening.
* At 745 PM Tuesday the stage was 23.5 feet.
* Flood stage is 20.0 feet.
* Minor flooding is occurring and minor flooding is forecast.
* Forecast... the river will continue to rise near 23.6 feet by early
Wednesday. The river will fall below flood stage by Monday
afternoon.


Lat... Lon 4137 8896 4135 8929 4126 8930 4128 8896